sensor_id;sensor_type;location;lat;lon;timestamp;P1;durP1;ratioP1;P2;durP2;ratioP2
51248;SDS011;39642;47.556;18.728;2023-07-31T00:00:29;7.50;;;2.17;;
51248;SDS011;39642;47.556;18.728;2023-07-31T00:12:02;6.75;;;2.30;;
51248;SDS011;39642;47.556;18.728;2023-07-31T00:14:28;8.43;;;2.40;;
51248;SDS011;39642;47.556;18.728;2023-07-31T00:16:53;7.12;;;2.10;;
51248;SDS011;39642;47.556;18.728;2023-07-31T00:19:19;6.55;;;2.17;;
51248;SDS011;39642;47.556;18.728;2023-07-31T00:21:45;6.87;;;2.00;;
51248;SDS011;39642;47.556;18.728;2023-07-31T00:24:11;7.45;;;2.40;;
51248;SDS011;39642;47.556;18.728;2023-07-31T00:26:37;7.68;;;2.15;;
51248;SDS011;39642;47.556;18.728;2023-07-31T00:29:03;7.45;;;2.40;;
51248;SDS011;39642;47.556;18.728;2023-07-31T00:31:28;9.60;;;2.40;;
51248;SDS011;39642;47.556;18.728;2023-07-31T00:33:54;7.37;;;2.20;;
51248;SDS011;39642;47.556;18.728;2023-07-31T00:36:20;7.93;;;2.20;;
51248;SDS011;39642;47.556;18.728;2023-07-31T00:38:46;7.37;;;2.10;;
51248;SDS011;39642;47.556;18.728;2023-07-31T00:41:12;7.60;;;2.25;;
51248;SDS011;39642;47.556;18.728;2023-07-31T00:43:38;7.70;;;2.20;;
51248;SDS011;39642;47.556;18.728;2023-07-31T00:46:04;7.87;;;2.33;;
51248;SDS011;39642;47.556;18.728;2023-07-31T00:48:30;7.05;;;2.40;;
51248;SDS011;39642;47.556;18.728;2023-07-31T00:50:56;8.88;;;2.33;;
51248;SDS011;39642;47.556;18.728;2023-07-31T00:53:21;7.62;;;2.42;;
51248;SDS011;39642;47.556;18.728;2023-07-31T00:55:48;7.05;;;2.28;;
51248;SDS011;39642;47.556;18.728;2023-07-31T00:58:14;8.05;;;2.30;;
51248;SDS011;39642;47.556;18.728;2023-07-31T01:00:40;8.85;;;2.42;;
51248;SDS011;39642;47.556;18.728;2023-07-31T01:03:05;8.95;;;2.30;;
51248;SDS011;39642;47.556;18.728;2023-07-31T01:08:52;7.57;;;2.40;;
51248;SDS011;39642;47.556;18.728;2023-07-31T01:11:34;7.50;;;2.33;;
51248;SDS011;39642;47.556;18.728;2023-07-31T01:14:08;7.25;;;2.30;;
51248;SDS011;39642;47.556;18.728;2023-07-31T01:16:34;7.07;;;2.00;;
51248;SDS011;39642;47.556;18.728;2023-07-31T01:19:00;7.68;;;2.30;;
51248;SDS011;39642;47.556;18.728;2023-07-31T01:24:21;8.00;;;2.35;;
51248;SDS011;39642;47.556;18.728;2023-07-31T01:26:57;7.97;;;2.35;;
51248;SDS011;39642;47.556;18.728;2023-07-31T01:32:11;6.93;;;2.25;;
51248;SDS011;39642;47.556;18.728;2023-07-31T01:34:38;7.93;;;2.10;;
51248;SDS011;39642;47.556;18.728;2023-07-31T01:37:05;6.28;;;2.03;;
51248;SDS011;39642;47.556;18.728;2023-07-31T01:39:31;7.07;;;2.28;;
51248;SDS011;39642;47.556;18.728;2023-07-31T01:41:56;7.03;;;2.10;;
51248;SDS011;39642;47.556;18.728;2023-07-31T01:44:22;6.00;;;2.00;;
51248;SDS011;39642;47.556;18.728;2023-07-31T01:46:48;6.78;;;2.20;;
51248;SDS011;39642;47.556;18.728;2023-07-31T01:49:14;7.85;;;2.22;;
51248;SDS011;39642;47.556;18.728;2023-07-31T01:51:40;7.68;;;2.28;;
51248;SDS011;39642;47.556;18.728;2023-07-31T01:54:06;9.27;;;2.15;;
51248;SDS011;39642;47.556;18.728;2023-07-31T01:56:32;7.00;;;2.20;;
51248;SDS011;39642;47.556;18.728;2023-07-31T01:58:57;6.45;;;2.03;;
51248;SDS011;39642;47.556;18.728;2023-07-31T02:01:23;7.37;;;2.15;;
51248;SDS011;39642;47.556;18.728;2023-07-31T02:03:49;7.60;;;2.35;;
51248;SDS011;39642;47.556;18.728;2023-07-31T02:06:15;6.30;;;2.00;;
51248;SDS011;39642;47.556;18.728;2023-07-31T02:08:41;8.35;;;2.17;;
51248;SDS011;39642;47.556;18.728;2023-07-31T02:11:07;5.68;;;1.87;;
51248;SDS011;39642;47.556;18.728;2023-07-31T02:13:32;8.20;;;2.20;;
51248;SDS011;39642;47.556;18.728;2023-07-31T02:15:58;6.47;;;2.05;;
51248;SDS011;39642;47.556;18.728;2023-07-31T02:18:24;5.87;;;1.90;;
51248;SDS011;39642;47.556;18.728;2023-07-31T02:20:50;8.77;;;2.20;;
51248;SDS011;39642;47.556;18.728;2023-07-31T02:23:17;7.18;;;2.10;;
51248;SDS011;39642;47.556;18.728;2023-07-31T02:25:46;6.87;;;2.05;;
51248;SDS011;39642;47.556;18.728;2023-07-31T02:28:12;8.30;;;2.00;;
51248;SDS011;39642;47.556;18.728;2023-07-31T02:30:38;7.45;;;2.25;;
51248;SDS011;39642;47.556;18.728;2023-07-31T02:33:04;6.65;;;2.00;;
51248;SDS011;39642;47.556;18.728;2023-07-31T02:35:31;8.02;;;2.37;;
51248;SDS011;39642;47.556;18.728;2023-07-31T02:37:57;7.20;;;2.08;;
51248;SDS011;39642;47.556;18.728;2023-07-31T02:40:22;7.90;;;1.90;;
51248;SDS011;39642;47.556;18.728;2023-07-31T02:42:49;6.57;;;1.90;;
51248;SDS011;39642;47.556;18.728;2023-07-31T02:45:14;6.87;;;1.90;;
51248;SDS011;39642;47.556;18.728;2023-07-31T02:47:40;6.93;;;2.00;;
51248;SDS011;39642;47.556;18.728;2023-07-31T02:50:06;6.78;;;2.10;;
51248;SDS011;39642;47.556;18.728;2023-07-31T02:52:32;8.45;;;2.22;;
51248;SDS011;39642;47.556;18.728;2023-07-31T02:54:58;6.75;;;1.98;;
51248;SDS011;39642;47.556;18.728;2023-07-31T02:57:24;5.95;;;1.80;;
51248;SDS011;39642;47.556;18.728;2023-07-31T02:59:50;6.95;;;2.00;;
51248;SDS011;39642;47.556;18.728;2023-07-31T03:02:16;9.60;;;2.42;;
51248;SDS011;39642;47.556;18.728;2023-07-31T03:04:41;8.73;;;2.10;;
51248;SDS011;39642;47.556;18.728;2023-07-31T03:07:07;7.05;;;2.10;;
51248;SDS011;39642;47.556;18.728;2023-07-31T03:09:33;6.05;;;2.00;;
51248;SDS011;39642;47.556;18.728;2023-07-31T03:11:59;7.12;;;1.98;;
51248;SDS011;39642;47.556;18.728;2023-07-31T03:14:25;6.43;;;2.00;;
51248;SDS011;39642;47.556;18.728;2023-07-31T03:16:52;7.28;;;2.10;;
51248;SDS011;39642;47.556;18.728;2023-07-31T03:19:18;6.60;;;1.92;;
51248;SDS011;39642;47.556;18.728;2023-07-31T03:21:44;8.10;;;2.05;;
51248;SDS011;39642;47.556;18.728;2023-07-31T03:24:09;6.60;;;1.95;;
51248;SDS011;39642;47.556;18.728;2023-07-31T03:26:37;6.78;;;1.98;;
51248;SDS011;39642;47.556;18.728;2023-07-31T03:29:07;7.45;;;2.10;;
51248;SDS011;39642;47.556;18.728;2023-07-31T03:31:33;7.12;;;2.00;;
51248;SDS011;39642;47.556;18.728;2023-07-31T03:33:59;6.40;;;1.90;;
51248;SDS011;39642;47.556;18.728;2023-07-31T03:36:25;8.38;;;2.00;;
51248;SDS011;39642;47.556;18.728;2023-07-31T03:38:51;6.43;;;1.92;;
51248;SDS011;39642;47.556;18.728;2023-07-31T03:41:17;5.75;;;1.80;;
51248;SDS011;39642;47.556;18.728;2023-07-31T03:43:44;8.40;;;2.30;;
51248;SDS011;39642;47.556;18.728;2023-07-31T03:46:12;5.93;;;1.80;;
51248;SDS011;39642;47.556;18.728;2023-07-31T03:48:38;7.82;;;2.10;;
51248;SDS011;39642;47.556;18.728;2023-07-31T03:51:04;6.43;;;1.80;;
51248;SDS011;39642;47.556;18.728;2023-07-31T03:53:30;6.43;;;1.90;;
51248;SDS011;39642;47.556;18.728;2023-07-31T03:55:56;7.45;;;1.90;;
51248;SDS011;39642;47.556;18.728;2023-07-31T03:58:22;6.45;;;1.87;;
51248;SDS011;39642;47.556;18.728;2023-07-31T04:00:47;7.45;;;2.05;;
51248;SDS011;39642;47.556;18.728;2023-07-31T04:03:13;7.28;;;2.00;;
51248;SDS011;39642;47.556;18.728;2023-07-31T04:05:39;5.37;;;1.70;;
51248;SDS011;39642;47.556;18.728;2023-07-31T04:08:05;6.60;;;1.95;;
51248;SDS011;39642;47.556;18.728;2023-07-31T04:10:31;6.60;;;2.05;;
51248;SDS011;39642;47.556;18.728;2023-07-31T04:12:59;6.68;;;2.05;;
51248;SDS011;39642;47.556;18.728;2023-07-31T04:15:28;6.93;;;2.00;;
51248;SDS011;39642;47.556;18.728;2023-07-31T04:17:54;5.25;;;1.70;;
51248;SDS011;39642;47.556;18.728;2023-07-31T04:20:20;5.80;;;1.83;;
51248;SDS011;39642;47.556;18.728;2023-07-31T04:22:46;5.95;;;1.75;;
51248;SDS011;39642;47.556;18.728;2023-07-31T04:25:11;6.07;;;1.90;;
51248;SDS011;39642;47.556;18.728;2023-07-31T04:27:37;6.05;;;1.90;;
51248;SDS011;39642;47.556;18.728;2023-07-31T04:30:03;6.68;;;2.08;;
51248;SDS011;39642;47.556;18.728;2023-07-31T04:32:30;6.25;;;1.95;;
51248;SDS011;39642;47.556;18.728;2023-07-31T04:34:55;7.20;;;2.10;;
51248;SDS011;39642;47.556;18.728;2023-07-31T04:37:21;6.60;;;2.00;;
51248;SDS011;39642;47.556;18.728;2023-07-31T04:39:47;5.55;;;1.75;;
51248;SDS011;39642;47.556;18.728;2023-07-31T04:42:13;7.07;;;1.90;;
51248;SDS011;39642;47.556;18.728;2023-07-31T04:44:39;7.12;;;2.00;;
51248;SDS011;39642;47.556;18.728;2023-07-31T04:47:05;6.65;;;2.00;;
51248;SDS011;39642;47.556;18.728;2023-07-31T04:49:31;6.00;;;1.95;;
51248;SDS011;39642;47.556;18.728;2023-07-31T04:51:58;7.68;;;2.28;;
51248;SDS011;39642;47.556;18.728;2023-07-31T04:54:24;7.18;;;1.80;;
51248;SDS011;39642;47.556;18.728;2023-07-31T04:56:50;6.43;;;1.85;;
51248;SDS011;39642;47.556;18.728;2023-07-31T04:59:15;7.05;;;1.85;;
51248;SDS011;39642;47.556;18.728;2023-07-31T05:01:41;6.28;;;1.98;;
51248;SDS011;39642;47.556;18.728;2023-07-31T05:04:08;6.62;;;2.10;;
51248;SDS011;39642;47.556;18.728;2023-07-31T05:06:34;7.32;;;1.80;;
51248;SDS011;39642;47.556;18.728;2023-07-31T05:09:00;6.68;;;1.77;;
51248;SDS011;39642;47.556;18.728;2023-07-31T05:11:25;7.78;;;1.98;;
51248;SDS011;39642;47.556;18.728;2023-07-31T05:13:51;6.87;;;1.92;;
51248;SDS011;39642;47.556;18.728;2023-07-31T05:16:17;6.75;;;1.95;;
51248;SDS011;39642;47.556;18.728;2023-07-31T05:18:43;5.82;;;1.90;;
51248;SDS011;39642;47.556;18.728;2023-07-31T05:21:09;7.18;;;2.00;;
51248;SDS011;39642;47.556;18.728;2023-07-31T05:23:35;7.45;;;2.05;;
51248;SDS011;39642;47.556;18.728;2023-07-31T05:26:04;5.90;;;1.80;;
51248;SDS011;39642;47.556;18.728;2023-07-31T05:28:31;7.93;;;2.03;;
51248;SDS011;39642;47.556;18.728;2023-07-31T05:31:03;5.43;;;1.80;;
51248;SDS011;39642;47.556;18.728;2023-07-31T05:35:56;6.15;;;1.90;;
51248;SDS011;39642;47.556;18.728;2023-07-31T05:38:22;5.03;;;1.60;;
51248;SDS011;39642;47.556;18.728;2023-07-31T05:40:48;5.95;;;1.80;;
51248;SDS011;39642;47.556;18.728;2023-07-31T05:43:14;6.43;;;1.90;;
51248;SDS011;39642;47.556;18.728;2023-07-31T05:45:41;6.35;;;1.80;;
51248;SDS011;39642;47.556;18.728;2023-07-31T05:48:08;7.15;;;2.10;;
51248;SDS011;39642;47.556;18.728;2023-07-31T05:50:34;5.75;;;2.00;;
51248;SDS011;39642;47.556;18.728;2023-07-31T05:53:00;5.93;;;1.80;;
51248;SDS011;39642;47.556;18.728;2023-07-31T05:55:25;6.03;;;1.80;;
51248;SDS011;39642;47.556;18.728;2023-07-31T05:57:52;5.50;;;1.70;;
51248;SDS011;39642;47.556;18.728;2023-07-31T06:00:18;5.60;;;1.77;;
51248;SDS011;39642;47.556;18.728;2023-07-31T06:02:44;5.62;;;1.75;;
51248;SDS011;39642;47.556;18.728;2023-07-31T06:05:10;6.37;;;1.77;;
51248;SDS011;39642;47.556;18.728;2023-07-31T06:07:36;5.18;;;1.70;;
51248;SDS011;39642;47.556;18.728;2023-07-31T06:10:02;6.65;;;1.70;;
51248;SDS011;39642;47.556;18.728;2023-07-31T06:12:30;4.78;;;1.70;;
51248;SDS011;39642;47.556;18.728;2023-07-31T06:14:57;6.53;;;1.90;;
51248;SDS011;39642;47.556;18.728;2023-07-31T06:17:23;6.25;;;1.90;;
51248;SDS011;39642;47.556;18.728;2023-07-31T06:19:49;6.65;;;1.90;;
51248;SDS011;39642;47.556;18.728;2023-07-31T06:22:15;5.97;;;1.80;;
51248;SDS011;39642;47.556;18.728;2023-07-31T06:24:41;6.70;;;1.85;;
51248;SDS011;39642;47.556;18.728;2023-07-31T06:27:07;5.90;;;1.80;;
51248;SDS011;39642;47.556;18.728;2023-07-31T06:29:33;7.20;;;2.00;;
51248;SDS011;39642;47.556;18.728;2023-07-31T06:31:59;6.20;;;1.73;;
51248;SDS011;39642;47.556;18.728;2023-07-31T06:34:25;6.57;;;1.73;;
51248;SDS011;39642;47.556;18.728;2023-07-31T06:36:50;6.35;;;1.98;;
51248;SDS011;39642;47.556;18.728;2023-07-31T06:39:16;6.65;;;1.87;;
51248;SDS011;39642;47.556;18.728;2023-07-31T06:41:43;5.82;;;1.77;;
51248;SDS011;39642;47.556;18.728;2023-07-31T06:44:10;5.62;;;1.60;;
51248;SDS011;39642;47.556;18.728;2023-07-31T06:46:36;6.60;;;1.80;;
51248;SDS011;39642;47.556;18.728;2023-07-31T06:49:02;6.28;;;1.80;;
51248;SDS011;39642;47.556;18.728;2023-07-31T06:51:28;5.78;;;1.60;;
51248;SDS011;39642;47.556;18.728;2023-07-31T06:53:53;5.22;;;1.80;;
51248;SDS011;39642;47.556;18.728;2023-07-31T06:56:20;5.70;;;1.70;;
51248;SDS011;39642;47.556;18.728;2023-07-31T06:58:46;6.05;;;1.70;;
51248;SDS011;39642;47.556;18.728;2023-07-31T07:01:12;6.22;;;1.80;;
51248;SDS011;39642;47.556;18.728;2023-07-31T07:03:38;5.68;;;1.65;;
51248;SDS011;39642;47.556;18.728;2023-07-31T07:06:04;8.40;;;1.98;;
51248;SDS011;39642;47.556;18.728;2023-07-31T07:08:30;6.12;;;1.95;;
51248;SDS011;39642;47.556;18.728;2023-07-31T07:10:55;6.28;;;1.73;;
51248;SDS011;39642;47.556;18.728;2023-07-31T07:13:21;4.18;;;1.52;;
51248;SDS011;39642;47.556;18.728;2023-07-31T07:15:48;7.37;;;2.10;;
51248;SDS011;39642;47.556;18.728;2023-07-31T07:18:15;7.37;;;1.90;;
51248;SDS011;39642;47.556;18.728;2023-07-31T07:20:45;6.47;;;1.80;;
51248;SDS011;39642;47.556;18.728;2023-07-31T07:23:12;5.95;;;1.80;;
51248;SDS011;39642;47.556;18.728;2023-07-31T07:25:38;7.32;;;1.92;;
51248;SDS011;39642;47.556;18.728;2023-07-31T07:28:04;8.27;;;2.28;;
51248;SDS011;39642;47.556;18.728;2023-07-31T07:30:30;6.15;;;1.80;;
51248;SDS011;39642;47.556;18.728;2023-07-31T07:32:55;5.68;;;1.55;;
51248;SDS011;39642;47.556;18.728;2023-07-31T07:35:21;3.97;;;1.50;;
51248;SDS011;39642;47.556;18.728;2023-07-31T07:37:50;5.97;;;1.80;;
51248;SDS011;39642;47.556;18.728;2023-07-31T07:40:16;7.62;;;1.77;;
51248;SDS011;39642;47.556;18.728;2023-07-31T07:42:42;7.68;;;1.80;;
51248;SDS011;39642;47.556;18.728;2023-07-31T07:45:08;5.85;;;1.87;;
51248;SDS011;39642;47.556;18.728;2023-07-31T07:47:34;4.82;;;1.65;;
51248;SDS011;39642;47.556;18.728;2023-07-31T07:50:00;6.97;;;2.00;;
51248;SDS011;39642;47.556;18.728;2023-07-31T07:52:26;6.47;;;1.85;;
51248;SDS011;39642;47.556;18.728;2023-07-31T07:54:52;6.87;;;1.77;;
51248;SDS011;39642;47.556;18.728;2023-07-31T07:57:18;6.97;;;1.80;;
51248;SDS011;39642;47.556;18.728;2023-07-31T07:59:44;7.45;;;2.00;;
51248;SDS011;39642;47.556;18.728;2023-07-31T08:02:10;7.90;;;1.90;;
51248;SDS011;39642;47.556;18.728;2023-07-31T08:04:36;5.87;;;1.90;;
51248;SDS011;39642;47.556;18.728;2023-07-31T08:07:02;7.30;;;1.80;;
51248;SDS011;39642;47.556;18.728;2023-07-31T08:09:28;7.62;;;1.80;;
51248;SDS011;39642;47.556;18.728;2023-07-31T08:11:53;6.20;;;1.77;;
51248;SDS011;39642;47.556;18.728;2023-07-31T08:14:20;6.80;;;1.90;;
51248;SDS011;39642;47.556;18.728;2023-07-31T08:16:45;5.85;;;1.67;;
51248;SDS011;39642;47.556;18.728;2023-07-31T08:19:11;6.32;;;1.80;;
51248;SDS011;39642;47.556;18.728;2023-07-31T08:21:37;6.78;;;1.85;;
51248;SDS011;39642;47.556;18.728;2023-07-31T08:24:03;6.35;;;1.75;;
51248;SDS011;39642;47.556;18.728;2023-07-31T08:26:29;6.32;;;2.05;;
51248;SDS011;39642;47.556;18.728;2023-07-31T08:28:55;5.72;;;1.90;;
51248;SDS011;39642;47.556;18.728;2023-07-31T08:31:21;7.80;;;2.12;;
51248;SDS011;39642;47.556;18.728;2023-07-31T08:33:47;8.00;;;2.35;;
51248;SDS011;39642;47.556;18.728;2023-07-31T08:36:12;10.13;;;2.67;;
51248;SDS011;39642;47.556;18.728;2023-07-31T08:38:38;8.38;;;2.33;;
51248;SDS011;39642;47.556;18.728;2023-07-31T08:41:04;8.85;;;2.72;;
51248;SDS011;39642;47.556;18.728;2023-07-31T08:43:30;9.88;;;2.80;;
51248;SDS011;39642;47.556;18.728;2023-07-31T08:45:57;10.65;;;2.85;;
51248;SDS011;39642;47.556;18.728;2023-07-31T08:48:24;9.98;;;3.22;;
51248;SDS011;39642;47.556;18.728;2023-07-31T08:50:51;9.45;;;3.10;;
51248;SDS011;39642;47.556;18.728;2023-07-31T08:53:18;9.30;;;3.28;;
51248;SDS011;39642;47.556;18.728;2023-07-31T08:55:44;10.90;;;3.53;;
51248;SDS011;39642;47.556;18.728;2023-07-31T08:58:12;10.60;;;3.60;;
51248;SDS011;39642;47.556;18.728;2023-07-31T09:00:38;11.60;;;3.87;;
51248;SDS011;39642;47.556;18.728;2023-07-31T09:03:09;9.73;;;3.60;;
51248;SDS011;39642;47.556;18.728;2023-07-31T09:05:39;10.05;;;3.87;;
51248;SDS011;39642;47.556;18.728;2023-07-31T09:08:11;10.60;;;4.00;;
51248;SDS011;39642;47.556;18.728;2023-07-31T09:10:44;10.23;;;4.20;;
51248;SDS011;39642;47.556;18.728;2023-07-31T09:13:12;11.07;;;4.30;;
51248;SDS011;39642;47.556;18.728;2023-07-31T09:15:39;10.70;;;4.15;;
51248;SDS011;39642;47.556;18.728;2023-07-31T09:18:06;10.00;;;4.15;;
51248;SDS011;39642;47.556;18.728;2023-07-31T09:20:32;10.40;;;3.83;;
51248;SDS011;39642;47.556;18.728;2023-07-31T09:23:06;10.73;;;3.90;;
51248;SDS011;39642;47.556;18.728;2023-07-31T09:25:33;11.32;;;4.05;;
51248;SDS011;39642;47.556;18.728;2023-07-31T09:28:00;9.77;;;3.75;;
51248;SDS011;39642;47.556;18.728;2023-07-31T09:30:28;10.68;;;3.87;;
51248;SDS011;39642;47.556;18.728;2023-07-31T09:33:04;11.20;;;4.00;;
51248;SDS011;39642;47.556;18.728;2023-07-31T09:35:34;11.38;;;4.20;;
51248;SDS011;39642;47.556;18.728;2023-07-31T09:38:05;10.68;;;4.20;;
51248;SDS011;39642;47.556;18.728;2023-07-31T09:40:33;10.57;;;3.92;;
51248;SDS011;39642;47.556;18.728;2023-07-31T09:43:04;10.27;;;3.80;;
51248;SDS011;39642;47.556;18.728;2023-07-31T09:45:33;9.88;;;3.60;;
51248;SDS011;39642;47.556;18.728;2023-07-31T09:48:02;11.48;;;3.80;;
51248;SDS011;39642;47.556;18.728;2023-07-31T09:50:28;11.05;;;3.30;;
51248;SDS011;39642;47.556;18.728;2023-07-31T09:52:55;9.40;;;3.25;;
51248;SDS011;39642;47.556;18.728;2023-07-31T09:55:21;9.82;;;3.20;;
51248;SDS011;39642;47.556;18.728;2023-07-31T09:57:47;10.77;;;3.22;;
51248;SDS011;39642;47.556;18.728;2023-07-31T10:00:18;9.52;;;3.30;;
51248;SDS011;39642;47.556;18.728;2023-07-31T10:02:48;10.65;;;3.30;;
51248;SDS011;39642;47.556;18.728;2023-07-31T10:05:16;10.38;;;3.20;;
51248;SDS011;39642;47.556;18.728;2023-07-31T10:07:43;10.00;;;2.97;;
51248;SDS011;39642;47.556;18.728;2023-07-31T10:10:15;8.27;;;2.65;;
51248;SDS011;39642;47.556;18.728;2023-07-31T10:12:41;8.98;;;3.12;;
51248;SDS011;39642;47.556;18.728;2023-07-31T10:15:10;9.70;;;2.72;;
51248;SDS011;39642;47.556;18.728;2023-07-31T10:17:36;8.57;;;2.70;;
51248;SDS011;39642;47.556;18.728;2023-07-31T10:20:04;8.05;;;2.67;;
51248;SDS011;39642;47.556;18.728;2023-07-31T10:22:32;8.32;;;2.70;;
51248;SDS011;39642;47.556;18.728;2023-07-31T10:24:59;8.40;;;2.53;;
51248;SDS011;39642;47.556;18.728;2023-07-31T10:27:25;8.32;;;2.58;;
51248;SDS011;39642;47.556;18.728;2023-07-31T10:29:52;9.30;;;2.60;;
51248;SDS011;39642;47.556;18.728;2023-07-31T10:32:20;9.15;;;2.50;;
51248;SDS011;39642;47.556;18.728;2023-07-31T10:34:48;8.15;;;2.50;;
51248;SDS011;39642;47.556;18.728;2023-07-31T10:39:55;8.25;;;2.40;;
51248;SDS011;39642;47.556;18.728;2023-07-31T10:42:44;9.68;;;2.60;;
51248;SDS011;39642;47.556;18.728;2023-07-31T10:45:36;7.90;;;2.20;;
51248;SDS011;39642;47.556;18.728;2023-07-31T10:48:17;7.20;;;2.28;;
51248;SDS011;39642;47.556;18.728;2023-07-31T10:53:24;8.13;;;2.10;;
51248;SDS011;39642;47.556;18.728;2023-07-31T10:55:51;9.60;;;2.28;;
51248;SDS011;39642;47.556;18.728;2023-07-31T10:58:18;8.35;;;2.15;;
51248;SDS011;39642;47.556;18.728;2023-07-31T11:00:46;6.87;;;2.10;;
51248;SDS011;39642;47.556;18.728;2023-07-31T11:03:16;7.10;;;2.00;;
51248;SDS011;39642;47.556;18.728;2023-07-31T11:05:53;6.62;;;2.30;;
51248;SDS011;39642;47.556;18.728;2023-07-31T11:08:28;7.03;;;2.35;;
51248;SDS011;39642;47.556;18.728;2023-07-31T11:13:40;7.03;;;2.10;;
51248;SDS011;39642;47.556;18.728;2023-07-31T11:16:18;7.47;;;2.10;;
51248;SDS011;39642;47.556;18.728;2023-07-31T11:18:51;6.45;;;1.90;;
51248;SDS011;39642;47.556;18.728;2023-07-31T11:21:19;7.90;;;2.20;;
51248;SDS011;39642;47.556;18.728;2023-07-31T11:23:47;6.78;;;1.90;;
51248;SDS011;39642;47.556;18.728;2023-07-31T11:26:13;6.93;;;1.98;;
51248;SDS011;39642;47.556;18.728;2023-07-31T11:28:40;7.57;;;2.00;;
51248;SDS011;39642;47.556;18.728;2023-07-31T11:31:11;6.70;;;2.00;;
51248;SDS011;39642;47.556;18.728;2023-07-31T11:33:37;6.87;;;1.90;;
51248;SDS011;39642;47.556;18.728;2023-07-31T11:36:03;8.30;;;1.92;;
51248;SDS011;39642;47.556;18.728;2023-07-31T11:38:30;7.85;;;2.00;;
51248;SDS011;39642;47.556;18.728;2023-07-31T11:41:01;7.37;;;1.92;;
51248;SDS011;39642;47.556;18.728;2023-07-31T11:43:29;6.57;;;1.90;;
51248;SDS011;39642;47.556;18.728;2023-07-31T11:45:56;8.18;;;2.20;;
51248;SDS011;39642;47.556;18.728;2023-07-31T11:48:24;5.30;;;1.80;;
51248;SDS011;39642;47.556;18.728;2023-07-31T11:50:58;7.15;;;1.90;;
51248;SDS011;39642;47.556;18.728;2023-07-31T11:53:36;6.03;;;1.87;;
51248;SDS011;39642;47.556;18.728;2023-07-31T11:56:07;7.47;;;1.90;;
51248;SDS011;39642;47.556;18.728;2023-07-31T11:58:37;7.12;;;2.15;;
51248;SDS011;39642;47.556;18.728;2023-07-31T12:01:04;7.37;;;1.92;;
51248;SDS011;39642;47.556;18.728;2023-07-31T12:03:31;6.30;;;1.77;;
51248;SDS011;39642;47.556;18.728;2023-07-31T12:05:58;7.00;;;2.12;;
51248;SDS011;39642;47.556;18.728;2023-07-31T12:08:25;4.95;;;1.65;;
51248;SDS011;39642;47.556;18.728;2023-07-31T12:10:51;7.78;;;1.90;;
51248;SDS011;39642;47.556;18.728;2023-07-31T12:13:22;6.53;;;1.90;;
51248;SDS011;39642;47.556;18.728;2023-07-31T12:15:54;6.35;;;1.90;;
51248;SDS011;39642;47.556;18.728;2023-07-31T12:18:21;6.37;;;1.80;;
51248;SDS011;39642;47.556;18.728;2023-07-31T12:20:57;6.55;;;1.90;;
51248;SDS011;39642;47.556;18.728;2023-07-31T12:23:25;5.70;;;1.77;;
51248;SDS011;39642;47.556;18.728;2023-07-31T12:26:05;5.40;;;1.65;;
51248;SDS011;39642;47.556;18.728;2023-07-31T12:28:35;7.70;;;2.00;;
51248;SDS011;39642;47.556;18.728;2023-07-31T12:33:42;6.53;;;1.80;;
51248;SDS011;39642;47.556;18.728;2023-07-31T12:36:10;7.10;;;1.90;;
51248;SDS011;39642;47.556;18.728;2023-07-31T12:38:40;6.37;;;1.90;;
51248;SDS011;39642;47.556;18.728;2023-07-31T12:41:07;6.82;;;1.98;;
51248;SDS011;39642;47.556;18.728;2023-07-31T12:43:37;8.65;;;1.87;;
51248;SDS011;39642;47.556;18.728;2023-07-31T12:46:04;9.52;;;1.95;;
51248;SDS011;39642;47.556;18.728;2023-07-31T12:48:31;5.75;;;1.83;;
51248;SDS011;39642;47.556;18.728;2023-07-31T12:50:58;7.82;;;1.80;;
51248;SDS011;39642;47.556;18.728;2023-07-31T12:53:23;8.73;;;2.40;;
51248;SDS011;39642;47.556;18.728;2023-07-31T12:55:49;6.20;;;1.80;;
51248;SDS011;39642;47.556;18.728;2023-07-31T12:58:15;4.70;;;1.65;;
51248;SDS011;39642;47.556;18.728;2023-07-31T13:00:41;7.05;;;2.10;;
51248;SDS011;39642;47.556;18.728;2023-07-31T13:03:08;7.93;;;1.90;;
51248;SDS011;39642;47.556;18.728;2023-07-31T13:05:34;5.72;;;1.80;;
51248;SDS011;39642;47.556;18.728;2023-07-31T13:08:00;8.73;;;1.80;;
51248;SDS011;39642;47.556;18.728;2023-07-31T13:10:26;6.68;;;1.80;;
51248;SDS011;39642;47.556;18.728;2023-07-31T13:12:54;6.40;;;1.87;;
51248;SDS011;39642;47.556;18.728;2023-07-31T13:15:20;5.50;;;1.75;;
51248;SDS011;39642;47.556;18.728;2023-07-31T13:17:46;6.85;;;1.80;;
51248;SDS011;39642;47.556;18.728;2023-07-31T13:20:12;5.22;;;1.52;;
51248;SDS011;39642;47.556;18.728;2023-07-31T13:22:38;7.28;;;1.80;;
51248;SDS011;39642;47.556;18.728;2023-07-31T13:25:04;5.03;;;1.67;;
51248;SDS011;39642;47.556;18.728;2023-07-31T13:27:30;6.50;;;1.70;;
51248;SDS011;39642;47.556;18.728;2023-07-31T13:29:56;6.15;;;1.70;;
51248;SDS011;39642;47.556;18.728;2023-07-31T13:32:23;5.70;;;1.70;;
51248;SDS011;39642;47.556;18.728;2023-07-31T13:34:49;6.03;;;1.77;;
51248;SDS011;39642;47.556;18.728;2023-07-31T13:37:15;5.72;;;1.65;;
51248;SDS011;39642;47.556;18.728;2023-07-31T13:39:41;6.22;;;1.80;;
51248;SDS011;39642;47.556;18.728;2023-07-31T13:42:08;8.35;;;1.92;;
51248;SDS011;39642;47.556;18.728;2023-07-31T13:44:40;7.85;;;1.90;;
51248;SDS011;39642;47.556;18.728;2023-07-31T13:47:08;5.82;;;1.90;;
51248;SDS011;39642;47.556;18.728;2023-07-31T13:49:35;5.37;;;1.70;;
51248;SDS011;39642;47.556;18.728;2023-07-31T13:52:02;7.47;;;1.95;;
51248;SDS011;39642;47.556;18.728;2023-07-31T13:54:28;6.75;;;1.87;;
51248;SDS011;39642;47.556;18.728;2023-07-31T13:56:54;5.25;;;1.73;;
51248;SDS011;39642;47.556;18.728;2023-07-31T13:59:20;6.45;;;1.67;;
51248;SDS011;39642;47.556;18.728;2023-07-31T14:01:46;4.78;;;1.60;;
51248;SDS011;39642;47.556;18.728;2023-07-31T14:04:13;5.93;;;1.80;;
51248;SDS011;39642;47.556;18.728;2023-07-31T14:06:39;5.68;;;1.60;;
51248;SDS011;39642;47.556;18.728;2023-07-31T14:09:05;6.25;;;1.70;;
51248;SDS011;39642;47.556;18.728;2023-07-31T14:11:31;6.03;;;1.80;;
51248;SDS011;39642;47.556;18.728;2023-07-31T14:13:57;6.25;;;1.77;;
51248;SDS011;39642;47.556;18.728;2023-07-31T14:16:23;5.62;;;1.58;;
51248;SDS011;39642;47.556;18.728;2023-07-31T14:18:49;4.72;;;1.50;;
51248;SDS011;39642;47.556;18.728;2023-07-31T14:21:15;4.90;;;1.60;;
51248;SDS011;39642;47.556;18.728;2023-07-31T14:23:41;5.62;;;1.70;;
51248;SDS011;39642;47.556;18.728;2023-07-31T14:26:07;7.10;;;1.75;;
51248;SDS011;39642;47.556;18.728;2023-07-31T14:28:33;6.43;;;1.73;;
51248;SDS011;39642;47.556;18.728;2023-07-31T14:30:59;5.53;;;1.60;;
51248;SDS011;39642;47.556;18.728;2023-07-31T14:33:25;4.95;;;1.67;;
51248;SDS011;39642;47.556;18.728;2023-07-31T14:35:51;6.68;;;1.85;;
51248;SDS011;39642;47.556;18.728;2023-07-31T14:38:17;7.95;;;1.90;;
51248;SDS011;39642;47.556;18.728;2023-07-31T14:40:43;6.25;;;1.65;;
51248;SDS011;39642;47.556;18.728;2023-07-31T14:43:09;6.05;;;1.67;;
51248;SDS011;39642;47.556;18.728;2023-07-31T14:45:35;6.00;;;1.70;;
51248;SDS011;39642;47.556;18.728;2023-07-31T14:48:01;5.90;;;1.70;;
51248;SDS011;39642;47.556;18.728;2023-07-31T14:50:26;6.10;;;1.90;;
51248;SDS011;39642;47.556;18.728;2023-07-31T14:52:52;6.97;;;1.80;;
51248;SDS011;39642;47.556;18.728;2023-07-31T14:55:18;6.57;;;1.80;;
51248;SDS011;39642;47.556;18.728;2023-07-31T14:57:44;7.50;;;1.80;;
51248;SDS011;39642;47.556;18.728;2023-07-31T15:00:10;5.80;;;1.70;;
51248;SDS011;39642;47.556;18.728;2023-07-31T15:02:37;5.90;;;1.80;;